Time;durP1;ratioP1;P1;durP2;ratioP2;P2;SDS_P1;SDS_P2;PMS_P1;PMS_P2;Temp;Humidity;BMP_temperature;BMP_pressure;BME280_temperature;BME280_humidity;BME280_pressure;Samples;Min_cycle;Max_cycle;Signal;HPM_P1;HPM_P2
2023/06/18 00:00:36;;;;;;;25.88;23.20;;;14.50;99.90;;;;;;5070731;28;20044;-82
2023/06/18 00:03:02;;;;;;;25.73;22.92;;;14.60;99.90;;;;;;5065032;28;20112;-82
2023/06/18 00:05:27;;;;;;;25.73;23.00;;;14.70;99.90;;;;;;5065900;28;20040;-82
2023/06/18 00:07:53;;;;;;;29.88;25.75;;;14.70;99.90;;;;;;5067974;28;20090;-83
2023/06/18 00:10:19;;;;;;;29.08;23.92;;;14.70;99.90;;;;;;5074336;28;20589;-82
2023/06/18 00:12:44;;;;;;;29.17;24.40;;;14.70;99.90;;;;;;5067131;28;20064;-82
2023/06/18 00:15:10;;;;;;;23.48;20.95;;;14.70;99.90;;;;;;5070754;28;20398;-82
2023/06/18 00:17:36;;;;;;;31.15;26.08;;;14.60;99.90;;;;;;5063912;28;20044;-82
2023/06/18 00:20:03;;;;;;;27.70;24.75;;;14.60;99.90;;;;;;5100004;28;20041;-82
2023/06/18 00:22:28;;;;;;;30.50;25.90;;;14.70;99.90;;;;;;5071534;28;20036;-82
2023/06/18 00:24:54;;;;;;;25.40;22.73;;;14.70;99.90;;;;;;5069695;28;20048;-82
2023/06/18 00:27:20;;;;;;;26.40;22.63;;;14.70;99.90;;;;;;5068933;28;20498;-83
2023/06/18 00:29:47;;;;;;;24.30;21.63;;;14.70;99.90;;;;;;5067029;28;20045;-82
2023/06/18 00:32:14;;;;;;;25.67;22.92;;;14.70;99.90;;;;;;5066783;28;20052;-82
2023/06/18 00:34:41;;;;;;;24.38;21.73;;;14.60;99.90;;;;;;5085536;28;20048;-82
2023/06/18 00:37:10;;;;;;;28.73;25.25;;;14.50;99.90;;;;;;5102395;28;20055;-82
2023/06/18 00:39:37;;;;;;;25.73;23.15;;;14.50;99.90;;;;;;5076698;28;20042;-82
2023/06/18 00:42:05;;;;;;;27.45;23.60;;;14.60;99.90;;;;;;5075488;28;20029;-82
2023/06/18 00:44:31;;;;;;;26.85;23.90;;;14.50;99.90;;;;;;5074473;28;20585;-82
2023/06/18 00:46:59;;;;;;;27.17;24.08;;;14.50;99.90;;;;;;5070389;28;20048;-82
2023/06/18 00:49:28;;;;;;;26.90;24.23;;;14.50;99.90;;;;;;5101042;27;20068;-82
2023/06/18 00:51:54;;;;;;;27.58;24.02;;;14.40;99.90;;;;;;5071606;28;20141;-82
2023/06/18 00:54:19;;;;;;;26.35;23.65;;;14.50;99.90;;;;;;5068854;28;20096;-82
2023/06/18 00:56:52;;;;;;;34.45;27.40;;;14.50;99.90;;;;;;5069478;28;20190;-82
2023/06/18 00:59:22;;;;;;;30.38;25.58;;;14.50;99.90;;;;;;5067909;28;20090;-82
2023/06/18 01:02:00;;;;;;;31.38;26.50;;;14.50;99.90;;;;;;5073375;28;20484;-82
2023/06/18 01:04:32;;;;;;;33.10;28.05;;;14.50;99.90;;;;;;5075553;28;20048;-82
2023/06/18 01:07:01;;;;;;;31.77;28.30;;;14.50;99.90;;;;;;5068297;28;20103;-82
2023/06/18 01:09:27;;;;;;;33.42;28.10;;;14.40;99.90;;;;;;5074522;28;20052;-82
2023/06/18 01:11:53;;;;;;;31.80;27.02;;;14.40;99.90;;;;;;5071308;28;20546;-82
2023/06/18 01:14:27;;;;;;;36.72;30.85;;;14.40;99.90;;;;;;5078457;28;20047;-82
2023/06/18 01:16:58;;;;;;;31.55;28.05;;;14.50;99.90;;;;;;5073458;28;20051;-82
2023/06/18 01:19:56;;;;;;;34.30;28.08;;;14.50;99.90;;;;;;5101222;28;20036;-83
2023/06/18 01:22:30;;;;;;;29.08;25.88;;;14.50;99.90;;;;;;5077412;28;20048;-83
2023/06/18 01:24:58;;;;;;;32.40;28.00;;;14.50;99.90;;;;;;5075655;28;20097;-82
2023/06/18 01:27:27;;;;;;;33.50;26.95;;;14.50;99.90;;;;;;5070598;28;20055;-82
2023/06/18 01:29:54;;;;;;;30.73;26.50;;;14.40;99.90;;;;;;5099488;28;20091;-82
2023/06/18 01:32:21;;;;;;;25.40;22.98;;;14.40;99.90;;;;;;5071003;28;20098;-82
2023/06/18 01:34:47;;;;;;;24.88;22.35;;;14.40;99.90;;;;;;5068663;28;20518;-82
2023/06/18 01:37:33;;;;;;;23.95;20.27;;;14.30;99.90;;;;;;5072550;28;20079;-83
2023/06/18 01:40:11;;;;;;;22.83;19.20;;;14.20;99.90;;;;;;5068709;28;20044;-82
2023/06/18 01:42:46;;;;;;;40.95;22.85;;;14.20;99.90;;;;;;5071208;28;20072;-82
2023/06/18 01:45:21;;;;;;;26.40;23.73;;;14.20;99.90;;;;;;5065769;28;20041;-82
2023/06/18 01:47:48;;;;;;;29.27;26.17;;;14.10;99.90;;;;;;5095889;28;20051;-82
2023/06/18 01:50:17;;;;;;;29.45;26.20;;;14.10;99.90;;;;;;5099726;28;20072;-82
2023/06/18 01:52:45;;;;;;;26.70;23.83;;;14.00;99.90;;;;;;5057159;28;20029;-82
2023/06/18 01:55:13;;;;;;;23.58;21.13;;;13.90;99.90;;;;;;5072861;28;20040;-82
2023/06/18 01:57:39;;;;;;;26.17;23.38;;;13.90;99.90;;;;;;5066414;28;20751;-82
2023/06/18 02:00:06;;;;;;;25.80;23.10;;;13.80;99.90;;;;;;5069803;28;20047;-82
2023/06/18 02:02:32;;;;;;;26.30;22.75;;;13.80;99.90;;;;;;5068777;28;20055;-82
2023/06/18 02:04:58;;;;;;;25.15;21.67;;;13.70;99.90;;;;;;5072619;28;20104;-82
2023/06/18 02:07:23;;;;;;;25.60;22.98;;;13.70;99.90;;;;;;5067840;28;20035;-82
2023/06/18 02:09:49;;;;;;;27.25;23.15;;;13.70;99.90;;;;;;5069880;28;20045;-82
2023/06/18 02:12:14;;;;;;;27.48;22.98;;;13.70;99.90;;;;;;5069338;28;20037;-82
2023/06/18 02:14:40;;;;;;;25.00;21.55;;;13.60;99.90;;;;;;5071518;28;20490;-82
2023/06/18 02:17:05;;;;;;;33.28;23.85;;;13.70;99.90;;;;;;5073462;28;20036;-82
2023/06/18 02:19:31;;;;;;;33.30;26.23;;;13.50;99.90;;;;;;5070475;28;20094;-82
2023/06/18 02:21:57;;;;;;;25.17;20.80;;;13.40;99.90;;;;;;5070436;28;20487;-82
2023/06/18 02:24:23;;;;;;;22.75;18.05;;;13.30;99.90;;;;;;5067686;28;20032;-82
2023/06/18 02:26:48;;;;;;;25.23;22.15;;;13.20;99.90;;;;;;5069231;28;20647;-81
2023/06/18 02:29:14;;;;;;;23.13;17.17;;;13.10;99.90;;;;;;5069603;28;20119;-82
2023/06/18 02:31:40;;;;;;;25.30;22.60;;;12.90;99.90;;;;;;5070584;28;20098;-82
2023/06/18 02:34:05;;;;;;;28.27;25.30;;;12.70;99.90;;;;;;5066977;28;20045;-82
2023/06/18 02:36:32;;;;;;;23.23;21.05;;;12.60;99.90;;;;;;5069269;28;20559;-82
2023/06/18 02:38:58;;;;;;;219.63;24.10;;;12.60;99.90;;;;;;5071148;28;20040;-82
2023/06/18 02:41:23;;;;;;;19.45;17.58;;;12.60;99.90;;;;;;5073868;28;20562;-82
2023/06/18 02:43:49;;;;;;;22.33;19.85;;;12.50;99.90;;;;;;5066884;28;20033;-81
2023/06/18 02:46:18;;;;;;;25.73;23.23;;;12.50;99.90;;;;;;5069342;28;20091;-82
2023/06/18 02:48:44;;;;;;;26.25;23.85;;;12.60;99.90;;;;;;5053836;28;20044;-82
2023/06/18 02:51:10;;;;;;;34.45;31.38;;;12.60;99.90;;;;;;5100277;28;20138;-82
2023/06/18 02:53:36;;;;;;;31.83;29.05;;;12.60;99.90;;;;;;5067175;28;20237;-82
2023/06/18 02:56:02;;;;;;;80.63;29.80;;;12.50;99.90;;;;;;5069490;28;20127;-82
2023/06/18 02:58:27;;;;;;;78.20;37.10;;;12.40;99.90;;;;;;5066850;28;20395;-82
2023/06/18 03:00:59;;;;;;;107.47;27.65;;;12.30;99.90;;;;;;5070541;28;20036;-82
2023/06/18 03:03:25;;;;;;;34.85;28.45;;;12.20;99.90;;;;;;5103275;28;20430;-82
2023/06/18 03:05:51;;;;;;;29.75;24.63;;;12.20;99.90;;;;;;5072521;28;20071;-82
2023/06/18 03:08:18;;;;;;;25.30;22.70;;;12.20;99.90;;;;;;5067583;28;20044;-82
2023/06/18 03:10:44;;;;;;;26.95;24.15;;;12.30;99.90;;;;;;5066145;28;20131;-82
2023/06/18 03:13:09;;;;;;;27.15;24.45;;;12.40;99.90;;;;;;5067427;28;20076;-82
2023/06/18 03:15:35;;;;;;;21.50;19.40;;;12.50;99.90;;;;;;5072627;28;20048;-82
2023/06/18 03:18:01;;;;;;;23.88;21.40;;;12.60;99.90;;;;;;5071805;28;20041;-82
2023/06/18 03:20:27;;;;;;;20.35;18.35;;;12.60;99.90;;;;;;5070584;28;20185;-82
2023/06/18 03:22:53;;;;;;;19.50;17.60;;;12.50;99.90;;;;;;5102214;28;20057;-82
2023/06/18 03:25:20;;;;;;;23.35;20.13;;;12.60;99.90;;;;;;5064310;28;21772;-82
2023/06/18 03:27:50;;;;;;;26.65;23.13;;;12.60;99.90;;;;;;5070793;28;20045;-82
2023/06/18 03:30:16;;;;;;;30.60;22.33;;;12.60;99.90;;;;;;5071707;28;20112;-82
2023/06/18 03:32:42;;;;;;;20.63;18.52;;;12.80;99.90;;;;;;5063963;28;20107;-82
2023/06/18 03:35:08;;;;;;;23.50;21.15;;;12.80;99.90;;;;;;5072901;28;20471;-82
2023/06/18 03:37:35;;;;;;;29.42;25.75;;;12.90;99.90;;;;;;5072511;28;20090;-82
2023/06/18 03:40:03;;;;;;;35.08;26.38;;;12.90;99.90;;;;;;5074687;28;20380;-81
2023/06/18 03:42:29;;;;;;;37.78;29.05;;;13.10;99.90;;;;;;5071685;28;20060;-82
2023/06/18 03:44:55;;;;;;;32.85;26.33;;;13.10;99.90;;;;;;5067173;28;20043;-81
2023/06/18 03:47:20;;;;;;;28.42;25.33;;;13.20;99.90;;;;;;5064147;28;20082;-81
2023/06/18 03:49:46;;;;;;;32.10;27.38;;;13.30;99.90;;;;;;5069307;28;20515;-82
2023/06/18 03:52:12;;;;;;;35.38;28.75;;;13.20;99.90;;;;;;5065202;28;20059;-82
2023/06/18 03:54:38;;;;;;;33.05;28.20;;;13.40;99.90;;;;;;5071496;28;20045;-81
2023/06/18 03:57:04;;;;;;;38.03;31.50;;;13.50;99.90;;;;;;5068476;28;20045;-81
2023/06/18 03:59:30;;;;;;;39.08;30.95;;;13.60;99.90;;;;;;5070101;28;20053;-82
2023/06/18 04:01:56;;;;;;;31.30;28.00;;;13.70;99.90;;;;;;5066165;28;20045;-80
2023/06/18 04:04:22;;;;;;;36.92;29.38;;;13.80;99.90;;;;;;5104833;28;20036;-81
2023/06/18 04:06:47;;;;;;;32.38;28.45;;;13.80;99.90;;;;;;5068040;28;20074;-81
2023/06/18 04:09:13;;;;;;;32.80;28.00;;;14.00;99.90;;;;;;5066504;28;20132;-82
2023/06/18 04:11:40;;;;;;;30.60;26.95;;;14.20;99.90;;;;;;5074499;28;20033;-82
2023/06/18 04:14:07;;;;;;;34.75;29.00;;;14.30;99.90;;;;;;5076265;28;20048;-81
2023/06/18 04:16:32;;;;;;;34.55;30.05;;;14.30;99.90;;;;;;5072247;28;20056;-81
2023/06/18 04:18:58;;;;;;;34.88;29.60;;;14.50;99.90;;;;;;5070962;28;20094;-81
2023/06/18 04:21:23;;;;;;;37.08;29.67;;;14.50;99.90;;;;;;5073164;28;20040;-82
2023/06/18 04:23:49;;;;;;;36.08;29.65;;;14.60;99.90;;;;;;5076418;28;20043;-82
2023/06/18 04:26:14;;;;;;;31.05;27.85;;;14.70;99.90;;;;;;5074829;28;20037;-80
2023/06/18 04:28:40;;;;;;;31.55;28.13;;;14.80;99.90;;;;;;5071767;28;20036;-82
2023/06/18 04:31:06;;;;;;;34.75;28.45;;;14.90;99.90;;;;;;5069786;28;20078;-82
2023/06/18 04:33:31;;;;;;;36.92;29.45;;;15.10;99.90;;;;;;5071325;28;20167;-82
2023/06/18 04:35:57;;;;;;;30.65;27.48;;;15.30;99.90;;;;;;5060465;28;20502;-82
2023/06/18 04:38:22;;;;;;;33.90;29.30;;;15.50;99.90;;;;;;5074004;28;20063;-83
2023/06/18 04:40:49;;;;;;;30.75;27.52;;;15.60;99.90;;;;;;5075341;28;20063;-82
2023/06/18 04:43:17;;;;;;;33.60;28.23;;;15.60;99.90;;;;;;5073811;28;20120;-82
2023/06/18 04:45:44;;;;;;;29.90;26.73;;;15.70;99.90;;;;;;5068622;28;20071;-82
2023/06/18 04:48:10;;;;;;;31.63;27.40;;;15.90;99.90;;;;;;5072879;28;20037;-82
2023/06/18 04:50:35;;;;;;;30.55;27.38;;;16.00;99.90;;;;;;5104729;28;20040;-82
2023/06/18 04:53:01;;;;;;;30.85;27.52;;;16.10;99.90;;;;;;5072684;28;20043;-82
2023/06/18 04:55:27;;;;;;;31.83;28.15;;;16.30;99.90;;;;;;5069868;28;21602;-82
2023/06/18 04:57:53;;;;;;;32.92;26.33;;;16.30;99.90;;;;;;5066635;28;20036;-82
2023/06/18 05:00:20;;;;;;;29.77;26.58;;;16.60;99.90;;;;;;5073559;28;20032;-82
2023/06/18 05:02:45;;;;;;;30.38;26.33;;;16.80;99.90;;;;;;5070732;28;20040;-82
2023/06/18 05:05:11;;;;;;;27.48;24.67;;;17.00;99.90;;;;;;5073745;28;20032;-82
2023/06/18 05:07:36;;;;;;;27.50;24.77;;;17.20;99.90;;;;;;5071749;28;20175;-82
2023/06/18 05:10:02;;;;;;;28.25;24.27;;;17.60;99.90;;;;;;5075931;28;20040;-82
2023/06/18 05:12:28;;;;;;;27.17;24.30;;;17.70;99.90;;;;;;5068783;28;20427;-82
2023/06/18 05:14:53;;;;;;;27.02;24.42;;;17.80;99.90;;;;;;5074546;28;20044;-82
2023/06/18 05:17:19;;;;;;;28.30;25.13;;;17.70;99.90;;;;;;5073249;28;20067;-82
2023/06/18 05:19:45;;;;;;;28.98;25.88;;;17.90;99.90;;;;;;5065836;28;20097;-82
2023/06/18 05:22:10;;;;;;;26.45;23.83;;;18.30;99.90;;;;;;5070199;28;20040;-82
2023/06/18 05:24:36;;;;;;;27.67;24.92;;;18.40;99.90;;;;;;5076487;28;20040;-82
2023/06/18 05:27:02;;;;;;;27.10;24.40;;;18.30;99.90;;;;;;5072373;28;20095;-82
2023/06/18 05:29:27;;;;;;;31.27;25.45;;;18.40;99.90;;;;;;5069936;28;20524;-82
2023/06/18 05:31:53;;;;;;;25.17;22.45;;;18.40;99.90;;;;;;5067611;28;20044;-82
2023/06/18 05:34:18;;;;;;;24.63;22.10;;;18.60;99.90;;;;;;5071784;28;20176;-83
2023/06/18 05:36:44;;;;;;;26.60;23.25;;;18.80;99.90;;;;;;5074740;28;20598;-82
2023/06/18 05:39:10;;;;;;;25.90;23.27;;;19.10;99.90;;;;;;5071618;28;20514;-82
2023/06/18 05:41:35;;;;;;;29.17;23.02;;;19.30;99.90;;;;;;5070294;28;20040;-83
2023/06/18 05:44:01;;;;;;;25.35;22.95;;;19.50;99.90;;;;;;5070281;28;20037;-83
2023/06/18 05:46:26;;;;;;;26.65;23.23;;;19.70;99.90;;;;;;5068617;28;20049;-82
2023/06/18 05:48:52;;;;;;;26.67;23.98;;;19.90;99.90;;;;;;5069303;28;20055;-82
2023/06/18 05:51:18;;;;;;;25.13;22.50;;;20.10;99.90;;;;;;5071689;28;20044;-83
2023/06/18 05:53:43;;;;;;;26.42;21.90;;;20.30;99.90;;;;;;5073931;28;20040;-80
2023/06/18 05:56:09;;;;;;;25.77;22.10;;;20.20;99.90;;;;;;5068498;28;20064;-79
2023/06/18 05:58:35;;;;;;;25.50;21.77;;;20.30;99.90;;;;;;5073518;28;20040;-79
2023/06/18 06:01:01;;;;;;;23.98;21.45;;;20.30;99.90;;;;;;5064236;28;20094;-80
2023/06/18 06:03:26;;;;;;;24.95;21.73;;;20.30;99.90;;;;;;5073824;28;20050;-81
2023/06/18 06:05:52;;;;;;;24.60;21.98;;;20.50;99.90;;;;;;5069398;28;20044;-81
2023/06/18 06:08:17;;;;;;;23.90;21.38;;;20.60;99.90;;;;;;5070915;28;20036;-81
2023/06/18 06:10:43;;;;;;;26.45;22.70;;;20.70;99.90;;;;;;5066401;28;20055;-81
2023/06/18 06:13:09;;;;;;;27.65;21.70;;;20.70;99.90;;;;;;5071042;28;20112;-81
2023/06/18 06:15:34;;;;;;;26.20;19.67;;;20.90;99.90;;;;;;5067078;28;20124;-80
2023/06/18 06:18:01;;;;;;;22.35;19.70;;;20.90;99.90;;;;;;5069598;28;20641;-80
2023/06/18 06:20:27;;;;;;;22.02;19.70;;;20.90;99.90;;;;;;5073040;28;20604;-81
2023/06/18 06:22:53;;;;;;;22.55;20.15;;;21.00;99.90;;;;;;5065157;28;20028;-81
2023/06/18 06:25:18;;;;;;;23.23;20.27;;;21.20;99.90;;;;;;5067370;28;20147;-80
2023/06/18 06:27:44;;;;;;;20.25;18.10;;;21.40;99.90;;;;;;5068701;28;20055;-82
2023/06/18 06:30:10;;;;;;;21.73;19.42;;;21.40;99.90;;;;;;5067920;28;20058;-80
2023/06/18 06:32:36;;;;;;;20.33;18.33;;;21.40;99.90;;;;;;5066462;28;20186;-81
2023/06/18 06:35:03;;;;;;;18.92;17.13;;;21.40;99.90;;;;;;5100263;28;20039;-81
2023/06/18 06:37:29;;;;;;;18.58;16.65;;;21.20;99.90;;;;;;5077013;28;20107;-81
2023/06/18 06:39:55;;;;;;;23.33;17.95;;;21.30;99.90;;;;;;5080011;28;20028;-81
2023/06/18 06:42:21;;;;;;;20.05;15.95;;;21.40;99.90;;;;;;5076915;28;20062;-82
2023/06/18 06:44:47;;;;;;;20.42;17.48;;;21.70;99.90;;;;;;5074451;28;20044;-82
2023/06/18 06:47:12;;;;;;;18.50;16.50;;;21.80;99.90;;;;;;5074517;28;20047;-81
2023/06/18 06:49:38;;;;;;;17.80;15.18;;;22.20;99.90;;;;;;5075666;28;20048;-81
2023/06/18 06:52:04;;;;;;;20.48;15.52;;;22.40;99.90;;;;;;5079155;28;20082;-81
2023/06/18 06:54:30;;;;;;;16.85;15.25;;;22.60;99.90;;;;;;5077330;28;20443;-81
2023/06/18 06:56:55;;;;;;;17.45;15.73;;;23.00;99.90;;;;;;5079426;28;20043;-81
2023/06/18 06:59:21;;;;;;;18.65;16.58;;;22.90;99.90;;;;;;5072530;28;20058;-81
2023/06/18 07:01:46;;;;;;;16.90;15.30;;;23.00;99.90;;;;;;5072252;28;20067;-82
2023/06/18 07:04:13;;;;;;;16.63;15.10;;;23.40;99.90;;;;;;5069263;28;20117;-82
2023/06/18 07:06:39;;;;;;;16.20;14.50;;;23.60;99.90;;;;;;5071536;28;20094;-82
2023/06/18 07:09:06;;;;;;;18.23;14.70;;;23.70;99.90;;;;;;5073485;28;20043;-81
2023/06/18 07:11:33;;;;;;;16.75;15.07;;;23.90;99.90;;;;;;5077070;28;20372;-80
2023/06/18 07:13:59;;;;;;;17.25;15.48;;;23.80;99.90;;;;;;5074805;28;20045;-81
2023/06/18 07:16:25;;;;;;;17.27;15.48;;;23.80;99.90;;;;;;5072653;28;20044;-82
2023/06/18 07:18:50;;;;;;;20.75;15.82;;;23.60;99.90;;;;;;5078184;28;20036;-80
2023/06/18 07:21:17;;;;;;;18.00;15.85;;;23.70;99.90;;;;;;5075264;28;20169;-81
2023/06/18 07:23:42;;;;;;;16.95;15.02;;;23.50;99.90;;;;;;5071270;28;20115;-80
2023/06/18 07:26:08;;;;;;;17.05;15.35;;;23.50;99.90;;;;;;5064350;28;20072;-80
2023/06/18 07:28:33;;;;;;;17.92;15.30;;;23.40;99.90;;;;;;5069734;28;20112;-80
2023/06/18 07:30:59;;;;;;;16.77;15.05;;;23.70;99.90;;;;;;5072104;28;20036;-82
2023/06/18 07:33:24;;;;;;;17.90;16.05;;;23.80;99.90;;;;;;5072368;28;20075;-81
2023/06/18 07:35:50;;;;;;;17.52;15.73;;;23.70;99.90;;;;;;5068208;28;20082;-80
2023/06/18 07:38:16;;;;;;;15.13;13.55;;;23.80;99.90;;;;;;5069948;28;20056;-81
2023/06/18 07:40:41;;;;;;;15.43;13.93;;;24.00;99.90;;;;;;5072239;28;20395;-81
2023/06/18 07:43:07;;;;;;;15.55;13.85;;;24.10;99.90;;;;;;5073302;28;20046;-82
2023/06/18 07:45:33;;;;;;;15.93;14.32;;;24.30;99.90;;;;;;5073355;28;20047;-82
2023/06/18 07:47:58;;;;;;;13.55;12.23;;;24.20;99.90;;;;;;5098008;28;20040;-81
2023/06/18 07:50:24;;;;;;;15.25;13.85;;;24.60;99.90;;;;;;5068828;28;20047;-81
2023/06/18 07:52:49;;;;;;;13.40;12.05;;;24.80;99.90;;;;;;5069872;28;20063;-82
2023/06/18 07:55:15;;;;;;;14.25;12.95;;;24.90;99.90;;;;;;5069327;28;20037;-82
2023/06/18 07:57:41;;;;;;;14.38;12.88;;;25.00;99.90;;;;;;5070601;28;20041;-81
2023/06/18 08:00:07;;;;;;;16.23;14.05;;;25.00;99.90;;;;;;5069718;28;20048;-83
2023/06/18 08:02:32;;;;;;;15.65;12.40;;;25.10;99.90;;;;;;5069824;28;20733;-86
2023/06/18 08:04:58;;;;;;;13.65;12.10;;;25.00;99.90;;;;;;5075234;28;20149;-85
2023/06/18 08:07:24;;;;;;;14.43;12.70;;;25.40;99.90;;;;;;5071951;28;20055;-84
2023/06/18 08:09:49;;;;;;;14.57;11.68;;;25.30;99.90;;;;;;5071268;28;20032;-83
2023/06/18 08:12:15;;;;;;;14.45;13.02;;;25.50;99.90;;;;;;5073668;28;20483;-83
2023/06/18 08:14:40;;;;;;;14.15;12.75;;;25.90;99.90;;;;;;5070778;28;20040;-80
2023/06/18 08:17:06;;;;;;;16.48;12.45;;;25.80;99.90;;;;;;5074364;28;20297;-83
2023/06/18 08:19:32;;;;;;;14.73;11.73;;;25.90;99.90;;;;;;5086139;28;20043;-81
2023/06/18 08:21:57;;;;;;;25.95;13.05;;;26.10;99.90;;;;;;5073296;28;20054;-83
2023/06/18 08:24:23;;;;;;;13.38;11.77;;;26.00;99.90;;;;;;5069876;28;20628;-84
2023/06/18 08:26:48;;;;;;;13.35;11.05;;;26.00;99.90;;;;;;5066691;28;20052;-82
2023/06/18 08:29:14;;;;;;;10.82;9.68;;;26.00;99.90;;;;;;5076778;28;20051;-83
2023/06/18 08:31:41;;;;;;;10.57;9.50;;;26.00;99.90;;;;;;5068482;28;20055;-84
2023/06/18 08:34:07;;;;;;;12.05;9.52;;;26.20;99.90;;;;;;5065378;28;20725;-84
2023/06/18 08:36:32;;;;;;;10.25;9.25;;;26.40;99.90;;;;;;5075836;28;20850;-83
2023/06/18 08:38:58;;;;;;;12.57;9.60;;;26.50;99.90;;;;;;5070239;28;20040;-84
2023/06/18 08:41:23;;;;;;;14.70;9.85;;;26.70;99.90;;;;;;5068316;28;20040;-84
2023/06/18 08:43:49;;;;;;;10.25;9.18;;;26.80;99.90;;;;;;5075133;28;20032;-83
2023/06/18 08:46:16;;;;;;;9.48;8.57;;;26.80;99.90;;;;;;5074412;28;20046;-82
2023/06/18 08:48:52;;;;;;;11.52;9.55;;;26.90;99.90;;;;;;5067363;28;20096;-84
2023/06/18 08:51:18;;;;;;;11.13;8.63;;;26.80;99.90;;;;;;5080407;28;20088;-84
2023/06/18 08:53:55;;;;;;;10.68;8.88;;;26.70;99.30;;;;;;5080451;28;20139;-84
2023/06/18 08:56:23;;;;;;;10.13;8.70;;;26.90;99.70;;;;;;5073225;28;20032;-83
2023/06/18 08:58:51;;;;;;;7.32;6.63;;;26.70;99.50;;;;;;5076064;28;20035;-84
2023/06/18 09:01:19;;;;;;;12.43;7.18;;;26.90;99.90;;;;;;5075407;28;20032;-87
2023/06/18 09:03:46;;;;;;;8.48;7.25;;;26.90;97.30;;;;;;5077139;28;20044;-83
2023/06/18 09:06:12;;;;;;;9.07;7.68;;;27.20;98.80;;;;;;5075472;28;20036;-84
2023/06/18 09:08:38;;;;;;;8.60;6.85;;;27.00;97.80;;;;;;5077733;28;20037;-84
2023/06/18 09:11:06;;;;;;;7.82;7.05;;;27.00;97.80;;;;;;5072913;28;20041;-84
2023/06/18 09:13:32;;;;;;;7.78;6.65;;;27.10;98.10;;;;;;5070666;28;20044;-86
2023/06/18 09:15:57;;;;;;;10.35;6.45;;;27.10;97.20;;;;;;5075763;28;20456;-82
2023/06/18 09:18:24;;;;;;;7.70;5.90;;;27.00;94.60;;;;;;5074730;28;20048;-85
2023/06/18 09:20:52;;;;;;;6.15;5.55;;;27.20;96.70;;;;;;5077461;28;20044;-82
2023/06/18 09:23:18;;;;;;;6.68;6.03;;;27.40;95.60;;;;;;5076187;28;20044;-83
2023/06/18 09:25:54;;;;;;;9.25;5.82;;;27.60;95.70;;;;;;5074970;28;20383;-84
2023/06/18 09:28:20;;;;;;;7.50;5.78;;;27.90;94.30;;;;;;5104500;28;20084;-83
2023/06/18 09:30:51;;;;;;;11.20;5.25;;;28.00;93.20;;;;;;5076634;28;20068;-83
2023/06/18 09:33:28;;;;;;;5.45;5.00;;;28.00;93.90;;;;;;5101243;28;20132;-86
2023/06/18 09:35:59;;;;;;;5.90;5.40;;;28.10;94.30;;;;;;5072108;28;20052;-83
2023/06/18 09:38:41;;;;;;;10.30;5.90;;;28.30;95.10;;;;;;5083616;28;20040;-83
2023/06/18 09:41:17;;;;;;;5.70;5.07;;;28.50;93.90;;;;;;5075924;28;20044;-84
2023/06/18 09:43:47;;;;;;;8.05;5.43;;;28.50;93.90;;;;;;5072588;28;20106;-83
2023/06/18 09:46:13;;;;;;;6.22;5.47;;;28.50;93.70;;;;;;5079087;28;20047;-84
2023/06/18 09:48:46;;;;;;;8.35;5.82;;;28.30;92.30;;;;;;5078137;28;20490;-82
2023/06/18 09:51:14;;;;;;;7.25;5.30;;;28.30;93.00;;;;;;5059281;28;20081;-83
2023/06/18 09:53:40;;;;;;;8.13;5.03;;;28.40;92.70;;;;;;5074615;28;20056;-86
2023/06/18 09:56:14;;;;;;;6.75;5.07;;;28.20;91.80;;;;;;5074468;28;20500;-83
2023/06/18 09:58:50;;;;;;;9.65;4.75;;;28.00;91.40;;;;;;5058520;28;20056;-83
2023/06/18 10:01:17;;;;;;;6.95;5.47;;;28.20;91.40;;;;;;5078382;28;20036;-84
2023/06/18 10:03:44;;;;;;;7.30;4.80;;;28.30;92.30;;;;;;5074438;28;20047;-82
2023/06/18 10:06:11;;;;;;;5.68;5.15;;;28.20;91.70;;;;;;5078687;28;20059;-84
2023/06/18 10:08:43;;;;;;;5.97;4.97;;;28.40;91.90;;;;;;5056852;28;20048;-83
2023/06/18 10:11:10;;;;;;;6.55;5.40;;;28.30;91.80;;;;;;5094930;28;20048;-83
2023/06/18 10:13:47;;;;;;;7.80;5.50;;;28.30;90.30;;;;;;5071799;28;20052;-82
2023/06/18 10:16:14;;;;;;;5.68;5.13;;;28.40;91.40;;;;;;5074426;28;20043;-84
2023/06/18 10:19:03;;;;;;;11.15;6.40;;;28.60;91.80;;;;;;5072891;28;20404;-82
2023/06/18 10:21:31;;;;;;;5.28;4.80;;;28.50;91.70;;;;;;5073546;28;20045;-83
2023/06/18 10:24:05;;;;;;;10.40;5.30;;;28.30;92.10;;;;;;5060950;28;20028;-83
2023/06/18 10:26:31;;;;;;;8.13;6.10;;;28.20;91.70;;;;;;5105263;28;20541;-83
2023/06/18 10:28:57;;;;;;;6.93;5.10;;;28.30;93.10;;;;;;5071387;28;20045;-83
2023/06/18 10:31:25;;;;;;;5.47;4.65;;;28.40;92.60;;;;;;5075998;28;20032;-83
2023/06/18 10:33:51;;;;;;;6.20;5.57;;;28.50;91.90;;;;;;5072841;28;20037;-83
2023/06/18 10:36:17;;;;;;;6.93;5.45;;;28.60;92.00;;;;;;5072739;28;20054;-83
2023/06/18 10:38:44;;;;;;;6.78;4.97;;;28.70;91.50;;;;;;5066370;28;20036;-84
2023/06/18 10:41:18;;;;;;;9.27;5.13;;;28.70;90.90;;;;;;5069574;28;20032;-83
2023/06/18 10:43:52;;;;;;;8.77;5.37;;;28.70;90.60;;;;;;5064734;28;20036;-81
2023/06/18 10:46:18;;;;;;;7.68;4.35;;;28.60;90.80;;;;;;5068087;28;20052;-85
2023/06/18 10:49:14;;;;;;;6.55;4.60;;;28.50;90.70;;;;;;5065880;28;20129;-81
2023/06/18 10:51:40;;;;;;;5.30;4.75;;;28.40;90.00;;;;;;5099629;27;20104;-82
2023/06/18 10:54:29;;;;;;;6.97;4.88;;;28.20;90.60;;;;;;5049514;28;20067;-84
2023/06/18 10:56:56;;;;;;;5.40;4.95;;;28.20;90.90;;;;;;5102161;28;21710;-82
2023/06/18 10:59:40;;;;;;;6.95;5.28;;;28.00;90.60;;;;;;5077233;28;20044;-84
2023/06/18 11:02:06;;;;;;;5.05;4.47;;;28.00;90.50;;;;;;5072343;28;20032;-82
2023/06/18 11:04:33;;;;;;;6.80;4.88;;;28.00;90.80;;;;;;5067881;28;20597;-83
2023/06/18 11:07:27;;;;;;;5.95;5.30;;;28.00;90.80;;;;;;5067452;28;20053;-80
2023/06/18 11:09:59;;;;;;;10.95;5.00;;;28.00;90.70;;;;;;5065684;28;20534;-83
2023/06/18 11:12:26;;;;;;;7.45;5.20;;;28.10;91.60;;;;;;5069693;28;20469;-83
2023/06/18 11:15:12;;;;;;;11.07;5.50;;;28.10;91.10;;;;;;5069419;28;20028;-83
2023/06/18 11:17:40;;;;;;;6.20;5.18;;;28.10;90.50;;;;;;5068355;28;20586;-85
2023/06/18 11:20:06;;;;;;;5.80;5.18;;;28.10;90.10;;;;;;5073101;28;20068;-85
2023/06/18 11:22:34;;;;;;;8.48;4.78;;;28.10;90.70;;;;;;5075194;28;20078;-83
2023/06/18 11:25:00;;;;;;;6.97;5.20;;;28.10;90.80;;;;;;5072661;28;20067;-84
2023/06/18 11:27:26;;;;;;;8.18;5.65;;;28.10;91.40;;;;;;5069472;28;20082;-85
2023/06/18 11:29:56;;;;;;;5.60;5.10;;;27.90;90.50;;;;;;5064797;28;20055;-83
2023/06/18 11:32:25;;;;;;;5.82;5.07;;;28.10;90.90;;;;;;5072738;28;20052;-84
2023/06/18 11:34:51;;;;;;;7.90;5.13;;;28.10;90.30;;;;;;5067282;28;20044;-82
2023/06/18 11:37:17;;;;;;;5.43;4.32;;;28.10;90.20;;;;;;5063180;28;20063;-84
2023/06/18 11:39:43;;;;;;;5.97;4.60;;;28.20;90.00;;;;;;5061159;28;20119;-83
2023/06/18 11:42:19;;;;;;;6.93;4.65;;;28.30;88.70;;;;;;5057980;28;20052;-84
2023/06/18 11:44:47;;;;;;;6.20;4.85;;;28.60;87.40;;;;;;5056568;28;20044;-84
2023/06/18 11:47:13;;;;;;;7.78;5.03;;;28.60;86.80;;;;;;5061799;28;20056;-86
2023/06/18 11:49:43;;;;;;;5.80;5.13;;;28.70;87.70;;;;;;5066397;28;20041;-84
2023/06/18 11:52:09;;;;;;;8.05;4.70;;;28.70;87.90;;;;;;5062254;28;20230;-85
2023/06/18 11:54:43;;;;;;;7.18;4.80;;;28.70;88.00;;;;;;5067186;28;20100;-84
2023/06/18 11:57:13;;;;;;;6.72;4.97;;;28.80;87.10;;;;;;5079479;28;20217;-84
2023/06/18 11:59:40;;;;;;;8.43;4.60;;;29.10;88.20;;;;;;5093356;28;20815;-87
2023/06/18 12:02:25;;;;;;;6.30;5.70;;;29.00;90.40;;;;;;5063627;28;20634;-84
2023/06/18 12:04:52;;;;;;;10.63;5.30;;;29.50;88.90;;;;;;5062901;28;20040;-87
2023/06/18 12:07:23;;;;;;;10.18;5.47;;;29.20;85.00;;;;;;5061858;28;20095;-85
2023/06/18 12:09:51;;;;;;;7.43;5.45;;;29.20;86.20;;;;;;5064077;28;20040;-83
2023/06/18 12:12:26;;;;;;;5.57;5.07;;;29.20;87.70;;;;;;5067654;28;20072;-83
2023/06/18 12:15:23;;;;;;;6.70;5.45;;;29.10;88.00;;;;;;5063211;28;20041;-84
2023/06/18 12:17:59;;;;;;;6.78;5.38;;;29.00;87.30;;;;;;5062934;28;20052;-84
2023/06/18 12:20:28;;;;;;;7.20;5.50;;;28.80;83.80;;;;;;5063583;28;20098;-83
2023/06/18 12:22:54;;;;;;;8.88;5.32;;;28.90;88.80;;;;;;5051968;28;20953;-87
2023/06/18 12:25:22;;;;;;;8.00;5.60;;;28.60;87.40;;;;;;5066639;28;20432;-85
2023/06/18 12:27:50;;;;;;;7.60;5.30;;;28.60;85.20;;;;;;5064108;28;20609;-84
2023/06/18 12:30:15;;;;;;;7.82;5.75;;;28.70;88.80;;;;;;5063053;28;20056;-85
2023/06/18 12:32:42;;;;;;;6.28;5.68;;;28.60;89.50;;;;;;5065708;28;20032;-84
2023/06/18 12:35:12;;;;;;;5.95;5.45;;;28.70;88.70;;;;;;5051127;28;20051;-84